Aérodrome :
LOGIN :

S'inscrire | Disclaimer

   EN    FR    IT 

 










Légende :    VFR   VFR Marginal   IFR   IFR Intensif   IFR Très Intensif
Visi : 
Plafond : 
>= 8 km
>= 3000ft
5 à 8 km
1000 à 3000 ft
1500m à 5 km
500 à 1000 ft
800 à 1500m
200 à 500 ft
< 800m
< 200 ft
Symboles :   Orages  Brouillard  Fortes neiges  Fortes précipitations  Vent > 20 kt
SIGMETs :   Divers  Orages  Givrage  Turbulence  Onde Orograph.  Cendres Volcan.






- Altitude de l'aérodrome : 158 ft
- Code IATA : QAR


EHDL - Deelen Airbase

DERNIER METAR :
  • 171925Z AUTO 24017G30KT 190V290 9999 OVC250 07/02 Q1015 BLU

METARs EXPIRÉS :
  • 171855Z AUTO 24017KT 170V300 9999 FEW022 SCT028 BKN033 08/03 Q1015 BLU
  • 171825Z AUTO 24013KT 190V290 9999 FEW022 SCT026 BKN030 08/05 Q1014 BLU
  • 171755Z AUTO 22012KT 170V280 9999 SCT027 BKN031 BKN039 09/05 Q1014 BLU
  • 171725Z AUTO 20009KT 150V250 9999 FEW037 OVC046 09/07 Q1014 BLU
  • 171655Z AUTO 20009KT 160V240 9999 SCT042 OVC210 09/07 Q1013 BLU

Prévision TAF périmée.



MET'MAP, la Météo Aéronautique d'un coup d'oeil ! - Copyright ORBIFLY Décembre 2007 - Disclaimer

ORBIFLY MET'MAP TEAM :

Programmation & Développement : Alexandra Zaïnal
Sur une idée originale de : Baudouin d'Aumeries
Assistance à la programmation : Marc-Olivier Méhu
Soutien technique & logistique : Manuel Goepfert

Contact : metmap@orbifly.com




SOURCES & CREDITS :

   NOAA